Time;durP1;ratioP1;P1;durP2;ratioP2;P2;SDS_P1;SDS_P2;PMS_P1;PMS_P2;Temp;Humidity;BMP_temperature;BMP_pressure;BME280_temperature;BME280_humidity;BME280_pressure;Samples;Min_cycle;Max_cycle;Signal;HPM_P1;HPM_P2
2023/08/20 00:00:46;;;;;;;2.53;1.88;;;;;;;;;;5127804;27;41945;-64
2023/08/20 00:03:14;;;;;;;3.25;2.05;;;;;;;;;;5127814;27;40091;-64
2023/08/20 00:05:42;;;;;;;2.05;1.60;;;;;;;;;;5127567;27;42164;-64
2023/08/20 00:08:10;;;;;;;1.52;1.40;;;;;;;;;;5106658;27;41683;-64
2023/08/20 00:10:38;;;;;;;1.98;1.75;;;;;;;;;;5107093;27;42250;-64
2023/08/20 00:13:06;;;;;;;2.45;2.00;;;;;;;;;;5107121;27;41353;-64
2023/08/20 00:15:35;;;;;;;3.78;2.50;;;;;;;;;;5106558;27;42512;-64
2023/08/20 00:18:05;;;;;;;3.35;1.85;;;;;;;;;;5109536;27;40288;-64
2023/08/20 00:20:34;;;;;;;3.55;2.13;;;;;;;;;;5110471;27;42426;-64
2023/08/20 00:23:02;;;;;;;2.60;2.40;;;;;;;;;;5109548;27;40407;-64
2023/08/20 00:25:31;;;;;;;1.85;1.45;;;;;;;;;;5110737;27;41067;-64
2023/08/20 00:27:59;;;;;;;3.22;1.92;;;;;;;;;;5110462;27;41677;-64
2023/08/20 00:30:27;;;;;;;2.50;1.88;;;;;;;;;;5110702;28;40391;-64
2023/08/20 00:32:55;;;;;;;2.17;1.80;;;;;;;;;;5110772;28;41743;-64
2023/08/20 00:35:25;;;;;;;2.65;1.80;;;;;;;;;;5125895;27;41859;-64
2023/08/20 00:37:53;;;;;;;3.40;2.13;;;;;;;;;;5107647;28;39350;-64
2023/08/20 00:40:21;;;;;;;1.77;1.45;;;;;;;;;;5111089;28;42620;-64
2023/08/20 00:42:49;;;;;;;2.47;1.90;;;;;;;;;;5109580;27;40260;-63
2023/08/20 00:45:18;;;;;;;5.38;1.45;;;;;;;;;;5117887;27;40309;-64
2023/08/20 00:47:46;;;;;;;2.55;1.90;;;;;;;;;;5117373;27;40443;-64
2023/08/20 00:50:14;;;;;;;2.97;2.25;;;;;;;;;;5124382;27;40041;-64
2023/08/20 00:52:44;;;;;;;2.13;1.92;;;;;;;;;;5131316;27;42599;-64
2023/08/20 00:55:12;;;;;;;2.75;1.75;;;;;;;;;;5130490;27;42634;-63
2023/08/20 00:57:41;;;;;;;2.47;1.83;;;;;;;;;;5128378;27;39239;-64
2023/08/20 01:00:10;;;;;;;2.60;2.38;;;;;;;;;;5131452;27;42578;-64
2023/08/20 01:02:38;;;;;;;2.75;1.70;;;;;;;;;;5130470;27;40002;-64
2023/08/20 01:05:07;;;;;;;2.65;1.55;;;;;;;;;;5130314;27;41654;-64
2023/08/20 01:07:38;;;;;;;3.42;1.95;;;;;;;;;;5113768;27;41967;-63
2023/08/20 01:10:09;;;;;;;3.42;1.70;;;;;;;;;;5094797;27;39028;-64
2023/08/20 01:12:37;;;;;;;3.85;2.03;;;;;;;;;;5115698;27;42403;-63
2023/08/20 01:15:05;;;;;;;3.55;2.50;;;;;;;;;;5110039;28;42111;-63
2023/08/20 01:17:33;;;;;;;4.10;2.00;;;;;;;;;;5109180;27;40391;-64
2023/08/20 01:20:03;;;;;;;3.13;2.67;;;;;;;;;;5110245;28;41971;-64
2023/08/20 01:22:36;;;;;;;3.08;2.05;;;;;;;;;;5109631;28;42406;-64
2023/08/20 01:25:06;;;;;;;1.73;1.50;;;;;;;;;;5108954;28;41835;-64
2023/08/20 01:27:41;;;;;;;2.88;2.20;;;;;;;;;;5124841;27;40312;-64
2023/08/20 01:30:10;;;;;;;2.47;1.98;;;;;;;;;;5107765;28;40383;-64
2023/08/20 01:32:41;;;;;;;3.25;2.22;;;;;;;;;;5108729;28;42582;-63
2023/08/20 01:35:09;;;;;;;3.15;2.33;;;;;;;;;;5125559;27;41807;-63
2023/08/20 01:37:38;;;;;;;7.32;3.13;;;;;;;;;;5109392;27;40413;-64
2023/08/20 01:40:08;;;;;;;2.35;2.15;;;;;;;;;;5109626;27;41768;-64
2023/08/20 01:42:36;;;;;;;2.20;1.90;;;;;;;;;;5109275;28;42098;-64
2023/08/20 01:45:04;;;;;;;3.20;2.35;;;;;;;;;;5108721;28;38940;-63
2023/08/20 01:47:33;;;;;;;5.13;3.05;;;;;;;;;;5108129;28;43192;-64
2023/08/20 01:50:02;;;;;;;4.13;2.67;;;;;;;;;;5109839;27;41346;-64
2023/08/20 01:52:34;;;;;;;2.38;2.05;;;;;;;;;;5116053;27;41597;-64
2023/08/20 01:55:02;;;;;;;2.05;1.88;;;;;;;;;;5112506;27;40875;-63
2023/08/20 01:57:31;;;;;;;2.17;1.80;;;;;;;;;;5107768;28;39072;-64
2023/08/20 02:00:00;;;;;;;2.58;1.92;;;;;;;;;;5107435;28;40499;-64
2023/08/20 02:02:28;;;;;;;4.72;1.98;;;;;;;;;;5109216;27;41724;-64
2023/08/20 02:04:58;;;;;;;2.65;2.28;;;;;;;;;;5124707;27;39703;-64
2023/08/20 02:07:26;;;;;;;2.70;1.50;;;;;;;;;;5107031;28;40163;-64
2023/08/20 02:09:54;;;;;;;1.83;1.55;;;;;;;;;;5125434;27;40129;-63
2023/08/20 02:12:22;;;;;;;2.60;1.80;;;;;;;;;;5108708;28;41735;-64
2023/08/20 02:14:50;;;;;;;3.08;2.00;;;;;;;;;;5118576;27;42260;-64
2023/08/20 02:17:23;;;;;;;4.95;3.60;;;;;;;;;;5108164;27;39378;-64
2023/08/20 02:19:51;;;;;;;3.25;2.47;;;;;;;;;;5109301;28;41794;-64
2023/08/20 02:22:20;;;;;;;2.78;2.58;;;;;;;;;;5107862;28;43269;-64
2023/08/20 02:24:48;;;;;;;3.80;2.38;;;;;;;;;;5107743;28;40750;-64
2023/08/20 02:27:16;;;;;;;4.35;2.60;;;;;;;;;;5109065;28;41845;-64
2023/08/20 02:29:45;;;;;;;3.28;2.47;;;;;;;;;;5108539;28;42792;-64
2023/08/20 02:32:15;;;;;;;4.03;2.88;;;;;;;;;;5108091;28;40690;-63
2023/08/20 02:34:44;;;;;;;2.50;2.15;;;;;;;;;;5108253;27;42252;-64
2023/08/20 02:37:12;;;;;;;4.05;3.00;;;;;;;;;;5109038;28;39898;-64
2023/08/20 02:39:41;;;;;;;3.55;2.60;;;;;;;;;;5117933;27;41381;-64
2023/08/20 02:42:09;;;;;;;3.97;3.20;;;;;;;;;;5111082;27;41880;-63
2023/08/20 02:44:37;;;;;;;2.28;2.08;;;;;;;;;;5117005;27;41360;-64
2023/08/20 02:47:05;;;;;;;4.28;2.88;;;;;;;;;;5117712;27;42280;-64
2023/08/20 02:49:33;;;;;;;2.42;2.03;;;;;;;;;;5127335;27;40782;-64
2023/08/20 02:52:03;;;;;;;4.50;2.42;;;;;;;;;;5128502;27;40187;-64
2023/08/20 02:54:32;;;;;;;4.25;3.03;;;;;;;;;;5122870;27;42237;-64
2023/08/20 02:57:02;;;;;;;4.75;3.28;;;;;;;;;;5106673;28;40218;-64
2023/08/20 02:59:30;;;;;;;2.05;1.85;;;;;;;;;;5123885;27;40192;-63
2023/08/20 03:01:58;;;;;;;3.85;3.45;;;;;;;;;;5124162;27;41945;-64
2023/08/20 03:04:26;;;;;;;4.25;3.35;;;;;;;;;;5105851;28;40907;-64
2023/08/20 03:06:54;;;;;;;2.25;2.05;;;;;;;;;;5108600;28;42235;-64
2023/08/20 03:09:22;;;;;;;3.40;3.10;;;;;;;;;;5124351;27;41832;-64
2023/08/20 03:11:50;;;;;;;3.33;2.70;;;;;;;;;;5128465;27;39984;-64
2023/08/20 03:14:19;;;;;;;2.78;2.50;;;;;;;;;;5127660;27;41028;-64
2023/08/20 03:16:47;;;;;;;2.70;2.50;;;;;;;;;;5128344;27;39896;-63
2023/08/20 03:19:15;;;;;;;3.00;2.70;;;;;;;;;;5129323;27;42197;-63
2023/08/20 03:21:43;;;;;;;4.10;3.30;;;;;;;;;;5128837;27;41802;-64
2023/08/20 03:24:11;;;;;;;4.28;3.22;;;;;;;;;;5128121;27;41312;-63
2023/08/20 03:26:39;;;;;;;2.88;2.63;;;;;;;;;;5110985;27;40996;-64
2023/08/20 03:29:08;;;;;;;4.47;4.07;;;;;;;;;;5106603;28;40897;-64
2023/08/20 03:31:39;;;;;;;2.35;2.15;;;;;;;;;;5102749;27;38938;-63
2023/08/20 03:34:09;;;;;;;3.25;2.60;;;;;;;;;;5103499;28;41460;-64
2023/08/20 03:36:38;;;;;;;2.70;2.50;;;;;;;;;;5110705;27;38978;-64
2023/08/20 03:39:06;;;;;;;5.00;2.85;;;;;;;;;;5126620;27;40368;-63
2023/08/20 03:41:34;;;;;;;2.33;1.92;;;;;;;;;;5128220;27;42052;-63
2023/08/20 03:44:03;;;;;;;3.67;2.55;;;;;;;;;;5127550;27;39041;-64
2023/08/20 03:46:31;;;;;;;1.70;1.60;;;;;;;;;;5127104;27;42152;-63
2023/08/20 03:49:02;;;;;;;3.65;2.92;;;;;;;;;;5127731;27;41774;-63
2023/08/20 03:51:31;;;;;;;3.78;3.47;;;;;;;;;;5121805;27;41369;-63
2023/08/20 03:53:59;;;;;;;1.90;1.70;;;;;;;;;;5108641;27;39956;-63
2023/08/20 03:56:27;;;;;;;5.68;4.07;;;;;;;;;;5122194;27;41357;-64
2023/08/20 03:58:56;;;;;;;2.40;2.10;;;;;;;;;;5131711;27;42613;-64
2023/08/20 04:01:24;;;;;;;2.17;1.95;;;;;;;;;;5127509;27;41268;-64
2023/08/20 04:03:52;;;;;;;4.22;3.50;;;;;;;;;;5116397;27;40898;-63
2023/08/20 04:06:21;;;;;;;2.55;2.35;;;;;;;;;;5130955;27;42572;-64
2023/08/20 04:08:49;;;;;;;4.50;3.42;;;;;;;;;;5119920;27;42171;-64
2023/08/20 04:11:18;;;;;;;2.50;2.28;;;;;;;;;;5109743;27;39046;-63
2023/08/20 04:13:46;;;;;;;2.92;2.05;;;;;;;;;;5109327;27;40243;-64
2023/08/20 04:16:15;;;;;;;4.88;3.00;;;;;;;;;;5112209;27;42904;-64
2023/08/20 04:18:43;;;;;;;4.40;3.35;;;;;;;;;;5130646;27;41189;-64
2023/08/20 04:21:11;;;;;;;3.83;3.03;;;;;;;;;;5130213;27;40550;-64
2023/08/20 04:23:41;;;;;;;5.15;3.35;;;;;;;;;;5128847;27;40191;-64
2023/08/20 04:26:09;;;;;;;1.73;1.63;;;;;;;;;;5120937;27;42857;-63
2023/08/20 04:28:37;;;;;;;3.95;3.20;;;;;;;;;;5108551;28;40702;-64
2023/08/20 04:31:05;;;;;;;5.13;2.72;;;;;;;;;;5127311;27;39130;-64
2023/08/20 04:33:56;;;;;;;3.60;2.42;;;;;;;;;;5106610;27;41402;-63
2023/08/20 04:36:34;;;;;;;1.77;1.17;;;;;;;;;;5088716;28;39921;-63
2023/08/20 04:39:04;;;;;;;4.75;3.13;;;;;;;;;;5090733;28;41300;-63
2023/08/20 04:41:35;;;;;;;4.07;3.67;;;;;;;;;;5088021;28;41211;-63
2023/08/20 04:44:04;;;;;;;5.18;3.63;;;;;;;;;;5089279;28;39800;-63
2023/08/20 04:46:32;;;;;;;3.40;3.03;;;;;;;;;;5089957;28;42175;-63
2023/08/20 04:49:03;;;;;;;3.47;2.72;;;;;;;;;;5090664;27;40789;-64
2023/08/20 04:51:31;;;;;;;4.38;3.38;;;;;;;;;;5129460;27;39002;-64
2023/08/20 04:53:58;;;;;;;4.35;3.63;;;;;;;;;;5131131;27;41976;-64
2023/08/20 04:56:28;;;;;;;2.90;2.67;;;;;;;;;;5113000;27;40762;-63
2023/08/20 04:58:56;;;;;;;3.33;3.03;;;;;;;;;;5109136;28;38650;-64
2023/08/20 05:01:43;;;;;;;2.50;2.22;;;;;;;;;;5115999;27;42398;-64
2023/08/20 05:04:12;;;;;;;2.75;2.53;;;;;;;;;;5128395;27;32067;-64
2023/08/20 05:06:40;;;;;;;7.47;3.20;;;;;;;;;;5129173;27;40315;-63
2023/08/20 05:09:08;;;;;;;4.55;3.40;;;;;;;;;;5130160;27;40795;-63
2023/08/20 05:11:38;;;;;;;4.40;3.30;;;;;;;;;;5129110;27;40358;-64
2023/08/20 05:14:06;;;;;;;3.05;2.65;;;;;;;;;;5126285;27;40117;-63
2023/08/20 05:16:34;;;;;;;1.80;1.67;;;;;;;;;;5107524;28;41980;-64
2023/08/20 05:19:02;;;;;;;4.03;2.53;;;;;;;;;;5108595;28;38859;-64
2023/08/20 05:21:30;;;;;;;3.25;2.50;;;;;;;;;;5109717;27;42674;-63
2023/08/20 05:23:59;;;;;;;3.33;3.03;;;;;;;;;;5107922;28;41528;-63
2023/08/20 05:26:27;;;;;;;4.03;2.88;;;;;;;;;;5108029;28;40990;-64
2023/08/20 05:28:56;;;;;;;3.30;2.60;;;;;;;;;;5108315;28;41112;-64
2023/08/20 05:31:25;;;;;;;2.22;1.85;;;;;;;;;;5107553;28;39309;-63
2023/08/20 05:33:53;;;;;;;11.63;3.20;;;;;;;;;;5108209;28;40276;-64
2023/08/20 05:36:21;;;;;;;3.58;2.80;;;;;;;;;;5108447;28;41891;-63
2023/08/20 05:38:49;;;;;;;3.88;3.47;;;;;;;;;;5109019;28;40119;-63
2023/08/20 05:41:17;;;;;;;6.03;4.03;;;;;;;;;;5107906;28;40468;-63
2023/08/20 05:43:45;;;;;;;4.47;3.75;;;;;;;;;;5107832;28;40953;-64
2023/08/20 05:46:15;;;;;;;3.22;2.40;;;;;;;;;;5107961;28;38994;-63
2023/08/20 05:48:44;;;;;;;3.90;3.30;;;;;;;;;;5108071;28;40607;-64
2023/08/20 05:51:12;;;;;;;4.07;2.85;;;;;;;;;;5109147;27;39945;-63
2023/08/20 05:53:40;;;;;;;5.18;3.55;;;;;;;;;;5108425;28;41694;-64
2023/08/20 05:56:08;;;;;;;4.03;2.80;;;;;;;;;;5107669;28;41301;-64
2023/08/20 05:58:37;;;;;;;3.08;2.78;;;;;;;;;;5106130;28;40056;-64
2023/08/20 06:01:05;;;;;;;3.63;2.30;;;;;;;;;;5107817;27;41190;-64
2023/08/20 06:03:35;;;;;;;2.28;2.08;;;;;;;;;;5106742;28;40684;-64
2023/08/20 06:06:03;;;;;;;5.00;3.33;;;;;;;;;;5109316;27;41332;-64
2023/08/20 06:08:35;;;;;;;3.58;3.03;;;;;;;;;;5109227;27;41787;-64
2023/08/20 06:11:03;;;;;;;3.25;2.83;;;;;;;;;;5109808;27;40308;-64
2023/08/20 06:13:30;;;;;;;2.72;2.47;;;;;;;;;;5108364;27;41646;-64
2023/08/20 06:15:58;;;;;;;3.28;3.03;;;;;;;;;;5108686;27;43191;-64
2023/08/20 06:18:26;;;;;;;5.15;3.78;;;;;;;;;;5110482;27;39853;-63
2023/08/20 06:20:56;;;;;;;5.00;2.40;;;;;;;;;;5116519;27;41191;-64
2023/08/20 06:23:24;;;;;;;4.03;3.30;;;;;;;;;;5112767;27;42016;-64
2023/08/20 06:26:10;;;;;;;3.55;2.53;;;;;;;;;;5113517;27;40340;-63
2023/08/20 06:28:38;;;;;;;3.05;2.65;;;;;;;;;;5110745;27;41496;-64
2023/08/20 06:31:06;;;;;;;3.28;2.60;;;;;;;;;;5115880;27;43222;-64
2023/08/20 06:33:34;;;;;;;3.45;1.70;;;;;;;;;;5113172;27;42606;-64
2023/08/20 06:36:03;;;;;;;2.83;1.95;;;;;;;;;;5118173;27;41472;-63
2023/08/20 06:38:31;;;;;;;4.55;1.80;;;;;;;;;;5119672;27;39920;-63
2023/08/20 06:40:59;;;;;;;3.95;2.28;;;;;;;;;;5111194;27;41162;-63
2023/08/20 06:43:27;;;;;;;2.53;1.70;;;;;;;;;;5118822;27;41669;-64
2023/08/20 06:45:55;;;;;;;5.25;1.73;;;;;;;;;;5127950;27;39951;-64
2023/08/20 06:48:24;;;;;;;4.75;1.75;;;;;;;;;;5128256;27;40991;-64
2023/08/20 06:50:52;;;;;;;2.03;1.40;;;;;;;;;;5129526;27;43468;-64
2023/08/20 06:53:22;;;;;;;2.63;1.30;;;;;;;;;;5129519;27;40064;-63
2023/08/20 06:55:50;;;;;;;1.08;0.98;;;;;;;;;;5114921;27;42087;-64
2023/08/20 06:58:17;;;;;;;1.02;0.93;;;;;;;;;;5119283;27;39694;-68
2023/08/20 07:00:45;;;;;;;4.65;1.52;;;;;;;;;;5126501;27;41260;-68
2023/08/20 07:03:13;;;;;;;2.25;1.13;;;;;;;;;;5119077;27;40196;-68
2023/08/20 07:05:42;;;;;;;2.60;1.42;;;;;;;;;;5128757;27;40130;-68
2023/08/20 07:08:10;;;;;;;5.78;1.80;;;;;;;;;;5111034;27;42307;-68
2023/08/20 07:10:39;;;;;;;5.63;2.20;;;;;;;;;;5106978;27;42699;-68
2023/08/20 07:13:07;;;;;;;6.07;2.03;;;;;;;;;;5109468;27;41270;-68
2023/08/20 07:15:35;;;;;;;6.25;1.77;;;;;;;;;;5108019;27;42111;-68
2023/08/20 07:18:03;;;;;;;4.97;1.60;;;;;;;;;;5107625;27;41779;-68
2023/08/20 07:20:31;;;;;;;4.90;1.83;;;;;;;;;;5108546;27;41489;-68
2023/08/20 07:22:59;;;;;;;6.45;2.22;;;;;;;;;;5117441;27;42640;-67
2023/08/20 07:25:29;;;;;;;7.00;2.83;;;;;;;;;;5107594;27;40381;-67
2023/08/20 07:27:59;;;;;;;7.75;2.20;;;;;;;;;;5107708;27;41652;-68
2023/08/20 07:30:27;;;;;;;5.75;2.25;;;;;;;;;;5107173;27;43889;-69
2023/08/20 07:32:55;;;;;;;7.40;1.90;;;;;;;;;;5108251;27;40325;-67
2023/08/20 07:35:23;;;;;;;6.05;2.53;;;;;;;;;;5107694;27;43984;-68
2023/08/20 07:37:51;;;;;;;3.95;1.50;;;;;;;;;;5107613;27;41277;-67
2023/08/20 07:40:19;;;;;;;8.80;2.50;;;;;;;;;;5107761;27;42499;-67
2023/08/20 07:42:47;;;;;;;11.05;2.30;;;;;;;;;;5122454;27;42303;-67
2023/08/20 07:45:16;;;;;;;77.20;4.72;;;;;;;;;;5115535;27;40002;-67
2023/08/20 07:47:44;;;;;;;29.20;3.20;;;;;;;;;;5107458;27;42861;-67
2023/08/20 07:50:12;;;;;;;23.35;2.55;;;;;;;;;;5107838;27;42456;-66
2023/08/20 07:52:40;;;;;;;14.38;2.70;;;;;;;;;;5106467;27;40237;-66
2023/08/20 07:55:09;;;;;;;8.30;2.00;;;;;;;;;;5107852;27;41598;-66
2023/08/20 07:57:37;;;;;;;11.98;2.40;;;;;;;;;;5107848;27;42285;-66
2023/08/20 08:00:06;;;;;;;13.00;2.75;;;;;;;;;;5106276;27;42198;-67
2023/08/20 08:02:39;;;;;;;8.75;2.33;;;;;;;;;;5109900;27;42661;-67
2023/08/20 08:05:08;;;;;;;8.57;2.15;;;;;;;;;;5127332;27;40033;-66
2023/08/20 08:07:36;;;;;;;10.18;1.75;;;;;;;;;;5114474;27;41533;-66
2023/08/20 08:10:04;;;;;;;10.93;2.33;;;;;;;;;;5107448;27;42704;-68
2023/08/20 08:12:32;;;;;;;6.50;1.92;;;;;;;;;;5106297;27;41524;-66
2023/08/20 08:15:00;;;;;;;7.30;2.35;;;;;;;;;;5107199;27;41750;-66
2023/08/20 08:17:28;;;;;;;13.13;1.85;;;;;;;;;;5106671;27;42056;-66
2023/08/20 08:19:58;;;;;;;6.55;2.00;;;;;;;;;;5107721;27;41426;-66
2023/08/20 08:22:26;;;;;;;7.18;1.90;;;;;;;;;;5107015;27;41910;-66
2023/08/20 08:24:54;;;;;;;8.23;1.92;;;;;;;;;;5107894;27;40001;-66
2023/08/20 08:27:22;;;;;;;13.65;1.85;;;;;;;;;;5117496;27;41235;-66
2023/08/20 08:29:51;;;;;;;10.40;2.05;;;;;;;;;;5127924;27;41859;-66
2023/08/20 08:32:19;;;;;;;7.85;1.90;;;;;;;;;;5127572;27;41006;-66
2023/08/20 08:34:47;;;;;;;11.02;1.83;;;;;;;;;;5127086;27;41703;-69
2023/08/20 08:37:16;;;;;;;5.40;1.70;;;;;;;;;;5128155;27;42105;-68
2023/08/20 08:39:44;;;;;;;6.78;2.20;;;;;;;;;;5130504;27;40681;-68
2023/08/20 08:42:12;;;;;;;7.32;2.03;;;;;;;;;;5092920;27;42614;-68
2023/08/20 08:44:40;;;;;;;7.97;1.52;;;;;;;;;;5105433;27;41676;-68
2023/08/20 08:47:08;;;;;;;7.63;1.75;;;;;;;;;;5093947;27;41371;-68
2023/08/20 08:49:36;;;;;;;6.47;1.98;;;;;;;;;;5099816;28;42142;-67
2023/08/20 08:52:04;;;;;;;6.53;1.77;;;;;;;;;;5104339;27;42409;-68
2023/08/20 08:54:34;;;;;;;7.03;2.03;;;;;;;;;;5102573;27;41734;-67
2023/08/20 08:57:02;;;;;;;11.23;1.85;;;;;;;;;;5096299;28;41299;-68
2023/08/20 08:59:30;;;;;;;9.73;1.63;;;;;;;;;;5092165;28;41368;-67
2023/08/20 09:01:58;;;;;;;8.35;2.00;;;;;;;;;;5099886;28;41654;-65
2023/08/20 09:04:26;;;;;;;6.40;1.63;;;;;;;;;;5086481;28;42030;-67
2023/08/20 09:06:56;;;;;;;4.60;1.63;;;;;;;;;;5094040;28;42540;-67
2023/08/20 09:09:24;;;;;;;6.80;1.92;;;;;;;;;;5093920;28;42093;-67
2023/08/20 09:11:53;;;;;;;5.13;1.90;;;;;;;;;;5093262;28;41002;-67
2023/08/20 09:14:21;;;;;;;3.30;1.48;;;;;;;;;;5106229;27;42925;-67
2023/08/20 09:16:54;;;;;;;6.40;1.60;;;;;;;;;;5098292;27;42807;-68
2023/08/20 09:19:22;;;;;;;6.15;1.73;;;;;;;;;;5088348;27;40261;-67
2023/08/20 09:21:53;;;;;;;3.10;1.42;;;;;;;;;;5092808;27;41718;-67
2023/08/20 09:24:26;;;;;;;5.00;1.75;;;;;;;;;;5097126;27;41987;-67
2023/08/20 09:26:59;;;;;;;8.75;1.90;;;;;;;;;;5100448;28;42230;-67
2023/08/20 09:29:27;;;;;;;4.05;1.60;;;;;;;;;;5095909;27;43214;-68
2023/08/20 09:32:01;;;;;;;3.90;1.80;;;;;;;;;;5102356;27;40874;-68
2023/08/20 09:34:36;;;;;;;5.70;1.85;;;;;;;;;;5101513;28;42115;-68
2023/08/20 09:37:04;;;;;;;5.63;2.03;;;;;;;;;;5103669;28;42023;-67
2023/08/20 09:39:32;;;;;;;8.75;2.15;;;;;;;;;;5095467;27;40511;-67
2023/08/20 09:42:02;;;;;;;8.98;2.70;;;;;;;;;;5086492;28;42735;-67
2023/08/20 09:44:31;;;;;;;9.20;2.20;;;;;;;;;;5086222;28;41650;-67
2023/08/20 09:46:59;;;;;;;4.85;2.08;;;;;;;;;;5102051;27;41438;-67
2023/08/20 09:49:27;;;;;;;5.07;2.63;;;;;;;;;;5088341;27;42008;-67
2023/08/20 09:51:55;;;;;;;6.60;1.80;;;;;;;;;;5103253;27;40378;-67
2023/08/20 09:54:25;;;;;;;5.35;2.20;;;;;;;;;;5108126;27;41603;-67
2023/08/20 09:56:54;;;;;;;6.25;2.25;;;;;;;;;;5096955;28;42775;-67
2023/08/20 09:59:24;;;;;;;4.30;1.98;;;;;;;;;;5096858;27;40503;-67
2023/08/20 10:01:53;;;;;;;5.93;2.35;;;;;;;;;;5092566;28;42410;-67
2023/08/20 10:04:22;;;;;;;4.25;1.88;;;;;;;;;;5085371;28;42947;-66
2023/08/20 10:06:50;;;;;;;4.60;1.52;;;;;;;;;;5090297;28;42081;-68
2023/08/20 10:09:18;;;;;;;6.28;1.80;;;;;;;;;;5105217;27;41623;-67
2023/08/20 10:11:46;;;;;;;4.60;1.90;;;;;;;;;;5105941;27;41819;-67
2023/08/20 10:14:14;;;;;;;4.05;2.08;;;;;;;;;;5096366;27;42626;-67
2023/08/20 10:16:44;;;;;;;5.63;1.70;;;;;;;;;;5113801;27;41628;-67
2023/08/20 10:19:12;;;;;;;6.15;1.85;;;;;;;;;;5105668;27;41268;-67
2023/08/20 10:21:44;;;;;;;4.38;1.50;;;;;;;;;;5105413;28;42017;-66
2023/08/20 10:24:17;;;;;;;7.07;1.45;;;;;;;;;;5090103;27;41634;-67
2023/08/20 10:26:46;;;;;;;3.83;1.85;;;;;;;;;;5093047;27;40629;-66
2023/08/20 10:29:35;;;;;;;3.25;1.42;;;;;;;;;;5089083;28;41746;-67
2023/08/20 10:32:05;;;;;;;5.80;1.80;;;;;;;;;;5107389;28;43826;-68
2023/08/20 10:34:35;;;;;;;6.72;1.30;;;;;;;;;;5107660;27;40705;-70
2023/08/20 10:37:04;;;;;;;4.40;1.60;;;;;;;;;;5108736;27;42698;-70
2023/08/20 10:39:32;;;;;;;2.78;1.10;;;;;;;;;;5108277;27;41055;-70
2023/08/20 10:42:09;;;;;;;2.85;1.35;;;;;;;;;;5108243;27;41027;-70
2023/08/20 10:44:58;;;;;;;2.88;1.05;;;;;;;;;;5107750;27;40979;-69
2023/08/20 10:47:28;;;;;;;5.05;1.35;;;;;;;;;;5102386;27;40383;-69
2023/08/20 10:49:56;;;;;;;2.47;0.90;;;;;;;;;;5108808;27;42133;-72
2023/08/20 10:52:24;;;;;;;5.65;1.17;;;;;;;;;;5108802;27;41911;-67
2023/08/20 10:54:52;;;;;;;4.40;1.13;;;;;;;;;;5125425;27;40398;-72
2023/08/20 10:57:21;;;;;;;7.78;1.40;;;;;;;;;;5118942;27;41600;-73
2023/08/20 10:59:57;;;;;;;8.57;1.20;;;;;;;;;;5129518;27;41414;-74
2023/08/20 11:02:25;;;;;;;7.28;1.70;;;;;;;;;;5106879;27;41675;-70
2023/08/20 11:04:54;;;;;;;8.05;2.05;;;;;;;;;;5105647;27;40990;-68
2023/08/20 11:07:22;;;;;;;4.35;1.10;;;;;;;;;;5097773;28;40898;-69
2023/08/20 11:09:50;;;;;;;5.38;1.65;;;;;;;;;;5107147;27;41393;-66
2023/08/20 11:12:20;;;;;;;4.63;1.25;;;;;;;;;;5107823;27;43151;-69
2023/08/20 11:14:48;;;;;;;2.45;0.93;;;;;;;;;;5108033;27;40936;-69
2023/08/20 11:17:16;;;;;;;2.60;0.82;;;;;;;;;;5107462;27;42297;-68
2023/08/20 11:19:44;;;;;;;5.35;1.10;;;;;;;;;;5107168;27;40355;-69
2023/08/20 11:22:31;;;;;;;4.15;0.80;;;;;;;;;;5106221;27;41492;-70
2023/08/20 11:24:59;;;;;;;3.10;0.90;;;;;;;;;;5126692;27;42031;-69
2023/08/20 11:27:27;;;;;;;1.73;0.90;;;;;;;;;;5128363;27;40472;-69
2023/08/20 11:29:56;;;;;;;2.25;0.88;;;;;;;;;;5128391;27;41615;-69
2023/08/20 11:32:24;;;;;;;1.15;0.70;;;;;;;;;;5128580;27;41912;-69
2023/08/20 11:34:52;;;;;;;2.83;1.05;;;;;;;;;;5128848;27;39655;-69
2023/08/20 11:37:21;;;;;;;2.88;1.00;;;;;;;;;;5128259;27;41626;-68
2023/08/20 11:39:50;;;;;;;4.47;0.93;;;;;;;;;;5128756;27;40036;-68
2023/08/20 11:42:18;;;;;;;5.10;0.80;;;;;;;;;;5128283;27;41602;-69
2023/08/20 11:44:47;;;;;;;3.10;1.17;;;;;;;;;;5127534;27;41921;-68
2023/08/20 11:47:15;;;;;;;1.60;0.90;;;;;;;;;;5111083;27;41825;-69
2023/08/20 11:49:43;;;;;;;2.67;0.90;;;;;;;;;;5107082;27;42502;-68
2023/08/20 11:52:13;;;;;;;1.95;1.00;;;;;;;;;;5106120;27;41909;-68
2023/08/20 11:54:42;;;;;;;12.10;1.20;;;;;;;;;;5126358;27;40252;-69
2023/08/20 11:57:12;;;;;;;5.25;0.85;;;;;;;;;;5126781;27;42247;-68
2023/08/20 11:59:40;;;;;;;2.45;0.82;;;;;;;;;;5127852;27;42721;-68
2023/08/20 12:02:08;;;;;;;3.05;0.85;;;;;;;;;;5128267;27;41612;-68
2023/08/20 12:04:36;;;;;;;3.17;1.10;;;;;;;;;;5126840;27;42083;-68
2023/08/20 12:07:04;;;;;;;1.85;0.80;;;;;;;;;;5108324;27;41046;-68
2023/08/20 12:09:33;;;;;;;1.63;0.80;;;;;;;;;;5100973;27;41499;-70
2023/08/20 12:12:02;;;;;;;6.95;1.13;;;;;;;;;;5105078;27;42419;-69
2023/08/20 12:14:31;;;;;;;4.50;0.88;;;;;;;;;;5108952;27;40318;-70
2023/08/20 12:16:59;;;;;;;6.30;0.90;;;;;;;;;;5111185;27;41728;-69
2023/08/20 12:19:27;;;;;;;4.10;0.90;;;;;;;;;;5111911;27;42525;-69
2023/08/20 12:21:55;;;;;;;4.90;0.85;;;;;;;;;;5102250;27;40272;-68
2023/08/20 12:24:23;;;;;;;5.43;1.20;;;;;;;;;;5095460;28;42822;-68
2023/08/20 12:26:51;;;;;;;2.40;0.70;;;;;;;;;;5109034;27;39874;-68
2023/08/20 12:29:19;;;;;;;3.15;0.73;;;;;;;;;;5110001;27;41802;-68
2023/08/20 12:31:49;;;;;;;1.92;0.80;;;;;;;;;;5107495;27;42144;-69
2023/08/20 12:34:17;;;;;;;3.67;0.70;;;;;;;;;;5089255;28;40167;-68
2023/08/20 12:36:45;;;;;;;3.65;0.90;;;;;;;;;;5090193;28;42591;-69
2023/08/20 12:39:14;;;;;;;3.90;0.90;;;;;;;;;;5090531;28;42257;-69
2023/08/20 12:41:42;;;;;;;4.43;0.98;;;;;;;;;;5107165;28;41446;-69
2023/08/20 12:44:10;;;;;;;3.33;0.75;;;;;;;;;;5109572;27;41538;-70
2023/08/20 12:46:38;;;;;;;2.33;0.60;;;;;;;;;;5107654;27;40175;-70
2023/08/20 12:49:08;;;;;;;2.67;0.70;;;;;;;;;;5098429;27;41873;-69
2023/08/20 12:51:36;;;;;;;2.33;0.70;;;;;;;;;;5108141;27;41635;-72
2023/08/20 12:54:04;;;;;;;4.15;0.77;;;;;;;;;;5108730;27;41304;-69
2023/08/20 12:56:32;;;;;;;4.30;0.90;;;;;;;;;;5108043;27;41557;-68
2023/08/20 12:59:00;;;;;;;2.92;0.70;;;;;;;;;;5110182;27;41661;-69
2023/08/20 13:01:28;;;;;;;4.93;0.82;;;;;;;;;;5096582;27;41878;-71
2023/08/20 13:03:56;;;;;;;3.20;0.90;;;;;;;;;;5110042;27;41609;-72
2023/08/20 13:06:27;;;;;;;4.03;1.20;;;;;;;;;;5109466;27;43218;-67
2023/08/20 13:08:55;;;;;;;3.30;0.90;;;;;;;;;;5100963;27;41393;-66
2023/08/20 13:11:23;;;;;;;4.43;0.77;;;;;;;;;;5109244;27;42226;-66
2023/08/20 13:13:52;;;;;;;6.20;0.80;;;;;;;;;;5103122;28;40696;-70
2023/08/20 13:16:20;;;;;;;3.20;0.77;;;;;;;;;;5109141;27;42370;-73
2023/08/20 13:18:49;;;;;;;5.32;1.10;;;;;;;;;;5105712;27;41411;-75
2023/08/20 13:21:21;;;;;;;4.82;1.17;;;;;;;;;;5108058;27;40422;-74
2023/08/20 13:23:50;;;;;;;4.97;1.05;;;;;;;;;;5107392;27;42127;-82
2023/08/20 13:26:22;;;;;;;3.13;0.82;;;;;;;;;;5107850;27;20256;-75
2023/08/20 13:28:50;;;;;;;2.95;1.10;;;;;;;;;;5107359;27;39747;-75
2023/08/20 13:31:18;;;;;;;3.58;1.00;;;;;;;;;;5109223;27;41735;-75
2023/08/20 13:33:46;;;;;;;5.95;0.85;;;;;;;;;;5108560;27;39708;-75
2023/08/20 13:36:14;;;;;;;5.32;0.95;;;;;;;;;;5110662;27;41412;-77
2023/08/20 13:38:42;;;;;;;4.32;1.00;;;;;;;;;;5110771;27;42137;-77
2023/08/20 13:41:12;;;;;;;3.03;0.88;;;;;;;;;;5110980;27;40868;-68
2023/08/20 13:43:40;;;;;;;4.43;1.25;;;;;;;;;;5107271;28;40456;-67
2023/08/20 13:46:08;;;;;;;5.38;0.90;;;;;;;;;;5109733;28;42073;-70
2023/08/20 13:48:37;;;;;;;13.20;1.25;;;;;;;;;;5111311;27;41064;-68
2023/08/20 13:51:05;;;;;;;2.67;1.00;;;;;;;;;;5105885;27;43137;-69
2023/08/20 13:53:33;;;;;;;5.82;0.93;;;;;;;;;;5109125;27;38936;-68
2023/08/20 13:56:00;;;;;;;4.00;1.00;;;;;;;;;;5115057;27;41656;-70
2023/08/20 13:58:30;;;;;;;4.15;0.98;;;;;;;;;;5109120;27;43156;-69
2023/08/20 14:00:58;;;;;;;4.60;1.27;;;;;;;;;;5115861;27;39926;-69
2023/08/20 14:03:26;;;;;;;3.92;1.10;;;;;;;;;;5109084;27;42302;-68
2023/08/20 14:05:54;;;;;;;3.80;0.90;;;;;;;;;;5108564;27;42305;-69
2023/08/20 14:08:23;;;;;;;5.50;0.90;;;;;;;;;;5108556;27;41278;-69
2023/08/20 14:10:51;;;;;;;3.33;0.70;;;;;;;;;;5108551;27;41734;-69
2023/08/20 14:13:19;;;;;;;4.82;1.00;;;;;;;;;;5106392;28;40882;-68
2023/08/20 14:15:49;;;;;;;5.63;0.90;;;;;;;;;;5108508;27;42547;-69
2023/08/20 14:18:17;;;;;;;2.13;0.90;;;;;;;;;;5108433;27;41884;-68
2023/08/20 14:20:45;;;;;;;3.67;1.15;;;;;;;;;;5108506;27;40423;-68
2023/08/20 14:23:13;;;;;;;4.72;0.85;;;;;;;;;;5109301;27;41660;-68
2023/08/20 14:25:41;;;;;;;5.13;1.02;;;;;;;;;;5107944;27;43144;-69
2023/08/20 14:28:09;;;;;;;4.28;1.30;;;;;;;;;;5108631;27;41464;-69
2023/08/20 14:30:37;;;;;;;3.67;1.00;;;;;;;;;;5108203;27;42808;-68
2023/08/20 14:33:07;;;;;;;5.85;1.13;;;;;;;;;;5109280;27;41864;-69
2023/08/20 14:35:34;;;;;;;4.90;1.10;;;;;;;;;;5108289;27;41281;-69
2023/08/20 14:38:02;;;;;;;8.15;1.30;;;;;;;;;;5108463;27;41624;-68
2023/08/20 14:40:30;;;;;;;4.65;1.20;;;;;;;;;;5109385;27;40373;-68
2023/08/20 14:42:58;;;;;;;5.75;1.05;;;;;;;;;;5115957;27;41567;-68
2023/08/20 14:45:26;;;;;;;6.47;1.75;;;;;;;;;;5113904;27;42584;-68
2023/08/20 14:47:54;;;;;;;4.28;1.25;;;;;;;;;;5121239;27;40311;-69
2023/08/20 14:50:24;;;;;;;5.05;1.15;;;;;;;;;;5118958;27;41224;-69
2023/08/20 14:52:52;;;;;;;4.05;0.90;;;;;;;;;;5108212;27;42284;-68